createdAt,value
2017-02-21T00:00:44.782Z,955.67
2017-02-21T00:01:55.098Z,955.63
2017-02-21T00:03:05.401Z,955.63
2017-02-21T00:04:16.106Z,955.64
2017-02-21T00:05:26.815Z,955.62
2017-02-21T00:06:37.531Z,955.63
2017-02-21T00:07:48.260Z,955.57
2017-02-21T00:08:58.184Z,955.46
2017-02-21T00:10:08.116Z,955.43
2017-02-21T00:11:18.816Z,955.48
2017-02-21T00:12:29.563Z,955.54
2017-02-21T00:13:40.277Z,955.47
2017-02-21T00:14:50.977Z,955.46
2017-02-21T00:16:01.669Z,955.44
2017-02-21T00:17:12.364Z,955.42
2017-02-21T00:18:22.694Z,955.36
2017-02-21T00:19:33.417Z,955.33
2017-02-21T00:20:44.124Z,955.33
2017-02-21T00:21:54.455Z,955.3
2017-02-21T00:23:05.172Z,955.31
2017-02-21T00:24:15.100Z,955.36
2017-02-21T00:25:25.428Z,955.4
2017-02-21T00:26:36.440Z,955.42
2017-02-21T00:27:47.153Z,955.4
2017-02-21T00:28:57.873Z,955.41
2017-02-21T00:30:08.570Z,955.36
2017-02-21T00:31:19.284Z,955.26
2017-02-21T00:32:29.997Z,955.24
2017-02-21T00:33:40.708Z,955.25
2017-02-21T00:34:51.004Z,955.28
2017-02-21T00:36:01.703Z,955.25
2017-02-21T00:37:12.036Z,955.27
2017-02-21T00:38:22.348Z,955.29
2017-02-21T00:39:33.057Z,955.29
2017-02-21T00:40:43.759Z,955.23
2017-02-21T00:41:54.464Z,955.19
2017-02-21T00:43:05.170Z,955.15
2017-02-21T00:44:15.099Z,955.14
2017-02-21T00:45:25.023Z,955.19
2017-02-21T00:46:35.719Z,955.2
2017-02-21T00:47:46.045Z,955.17
2017-02-21T00:48:56.763Z,955.16
2017-02-21T00:50:07.479Z,955.16
2017-02-21T00:51:17.820Z,955.13
2017-02-21T00:52:28.516Z,955.13
2017-02-21T00:53:39.235Z,955.1
2017-02-21T00:54:49.936Z,955.08
2017-02-21T00:56:00.647Z,955.14
2017-02-21T00:57:11.358Z,955.04
2017-02-21T00:58:22.055Z,955.03
2017-02-21T00:59:32.767Z,954.96
2017-02-21T01:00:43.465Z,954.98
2017-02-21T01:01:54.186Z,954.96
2017-02-21T01:03:04.901Z,954.95
2017-02-21T01:04:15.660Z,954.93
2017-02-21T01:05:26.373Z,954.96
2017-02-21T01:06:37.087Z,954.92
2017-02-21T01:07:47.787Z,954.88
2017-02-21T01:08:58.101Z,954.9
2017-02-21T01:10:08.813Z,954.88
2017-02-21T01:11:19.157Z,954.91
2017-02-21T01:12:29.882Z,954.88
2017-02-21T01:13:40.584Z,954.89
2017-02-21T01:14:50.910Z,954.9
2017-02-21T01:16:01.623Z,954.88
2017-02-21T01:17:12.334Z,954.87
2017-02-21T01:18:22.666Z,954.85
2017-02-21T01:19:33.395Z,954.86
2017-02-21T01:20:44.092Z,954.83
2017-02-21T01:21:54.806Z,954.86
2017-02-21T01:23:05.530Z,954.87
2017-02-21T01:24:15.834Z,954.84
2017-02-21T01:25:26.536Z,954.76
2017-02-21T01:26:37.231Z,954.78
2017-02-21T01:27:47.967Z,954.77
2017-02-21T01:28:58.690Z,954.75
2017-02-21T01:30:09.396Z,954.72
2017-02-21T01:31:19.719Z,954.74
2017-02-21T01:32:30.431Z,954.66
2017-02-21T01:33:40.755Z,954.65
2017-02-21T01:34:51.469Z,954.62
2017-02-21T01:36:02.187Z,954.58
2017-02-21T01:37:12.481Z,954.57
2017-02-21T01:38:23.189Z,954.62
2017-02-21T01:39:33.902Z,954.57
2017-02-21T01:40:44.661Z,954.57
2017-02-21T01:41:54.968Z,954.61
2017-02-21T01:43:05.665Z,954.6
2017-02-21T01:44:15.977Z,954.69
2017-02-21T01:45:26.282Z,954.64
2017-02-21T01:46:37.038Z,954.64
2017-02-21T01:47:46.942Z,954.64
2017-02-21T01:48:57.715Z,954.62
2017-02-21T01:50:08.417Z,954.63
2017-02-21T01:51:19.111Z,954.66
2017-02-21T01:52:29.423Z,954.67
2017-02-21T01:53:40.125Z,954.66
2017-02-21T01:54:50.836Z,954.63
2017-02-21T01:56:01.532Z,954.56
2017-02-21T01:57:12.247Z,954.56
2017-02-21T01:58:22.960Z,954.52
2017-02-21T01:59:33.658Z,954.48
2017-02-21T02:00:44.393Z,954.43
2017-02-21T02:01:55.137Z,954.39
2017-02-21T02:03:05.838Z,954.37
2017-02-21T02:04:15.736Z,954.36
2017-02-21T02:05:26.449Z,954.34
2017-02-21T02:06:37.157Z,954.32
2017-02-21T02:07:47.864Z,954.28
2017-02-21T02:08:58.583Z,954.27
2017-02-21T02:10:09.281Z,954.28
2017-02-21T02:11:19.611Z,954.25
2017-02-21T02:12:30.343Z,954.26
2017-02-21T02:13:41.051Z,954.3
2017-02-21T02:14:51.767Z,954.32
2017-02-21T02:16:02.496Z,954.34
2017-02-21T02:17:13.227Z,954.34
2017-02-21T02:18:23.945Z,954.33
2017-02-21T02:19:34.660Z,954.36
2017-02-21T02:20:44.986Z,954.33
2017-02-21T02:21:55.686Z,954.37
2017-02-21T02:23:05.998Z,954.44
2017-02-21T02:24:16.716Z,954.39
2017-02-21T02:25:27.445Z,954.39
2017-02-21T02:26:37.748Z,954.47
2017-02-21T02:27:48.484Z,954.41
2017-02-21T02:28:59.204Z,954.43
2017-02-21T02:30:09.899Z,954.42
2017-02-21T02:31:20.656Z,954.41
2017-02-21T02:32:31.369Z,954.43
2017-02-21T02:33:42.076Z,954.46
2017-02-21T02:34:52.791Z,954.56
2017-02-21T02:36:03.128Z,954.55
2017-02-21T02:37:13.436Z,954.6
2017-02-21T02:38:23.738Z,954.65
2017-02-21T02:39:34.050Z,954.75
2017-02-21T02:40:44.761Z,954.87
2017-02-21T02:41:54.292Z,954.75
2017-02-21T02:43:05.003Z,954.6
2017-02-21T02:44:15.320Z,954.62
2017-02-21T02:45:26.013Z,954.77
2017-02-21T02:46:36.719Z,954.84
2017-02-21T02:47:47.415Z,954.81
2017-02-21T02:48:58.119Z,954.73
2017-02-21T02:50:08.826Z,954.74
2017-02-21T02:51:19.519Z,954.75
2017-02-21T02:52:30.250Z,954.8
2017-02-21T02:53:40.961Z,954.8
2017-02-21T02:54:51.687Z,954.76
2017-02-21T02:56:02.387Z,954.76
2017-02-21T02:57:12.714Z,954.79
2017-02-21T02:58:23.007Z,954.78
2017-02-21T02:59:33.717Z,954.78
2017-02-21T03:00:44.426Z,954.85
2017-02-21T03:01:55.134Z,954.86
2017-02-21T03:03:05.832Z,954.84
2017-02-21T03:04:16.218Z,954.86
2017-02-21T03:05:26.674Z,954.82
2017-02-21T03:06:37.389Z,954.82
2017-02-21T03:07:48.100Z,954.86
2017-02-21T03:08:58.412Z,954.88
2017-02-21T03:10:09.128Z,954.9
2017-02-21T03:11:19.824Z,954.96
2017-02-21T03:12:30.542Z,955.02
2017-02-21T03:13:40.849Z,955.04
2017-02-21T03:14:51.547Z,955.01
2017-02-21T03:16:02.262Z,954.97
2017-02-21T03:17:12.978Z,954.94
2017-02-21T03:18:23.684Z,954.92
2017-02-21T03:19:33.621Z,955.02
2017-02-21T03:20:43.536Z,955.09
2017-02-21T03:21:54.240Z,955.13
2017-02-21T03:23:04.956Z,955.15
2017-02-21T03:24:15.685Z,955.11
2017-02-21T03:25:26.383Z,955.07
2017-02-21T03:26:36.685Z,955.1
2017-02-21T03:27:46.988Z,955.11
2017-02-21T03:28:57.752Z,955.14
2017-02-21T03:30:08.071Z,955.12
2017-02-21T03:31:18.783Z,955.16
2017-02-21T03:32:29.106Z,955.2
2017-02-21T03:33:39.810Z,955.18
2017-02-21T03:34:50.125Z,955.23
2017-02-21T03:36:00.869Z,955.24
2017-02-21T03:37:11.597Z,955.21
2017-02-21T03:38:22.313Z,955.25
2017-02-21T03:39:33.018Z,955.26
2017-02-21T03:40:42.930Z,955.27
2017-02-21T03:41:53.625Z,955.35
2017-02-21T03:43:04.364Z,955.32
2017-02-21T03:44:15.069Z,955.35
2017-02-21T03:45:25.795Z,955.38
2017-02-21T03:46:36.487Z,955.49
2017-02-21T03:47:47.182Z,955.53
2017-02-21T03:48:57.898Z,955.56
2017-02-21T03:50:08.232Z,955.55
2017-02-21T03:51:18.938Z,955.58
2017-02-21T03:52:29.656Z,955.55
2017-02-21T03:53:40.391Z,955.62
2017-02-21T03:54:50.695Z,955.64
2017-02-21T03:56:01.388Z,955.66
2017-02-21T03:57:12.099Z,955.67
2017-02-21T03:58:22.425Z,955.67
2017-02-21T03:59:33.132Z,955.68
2017-02-21T04:00:43.835Z,955.72
2017-02-21T04:01:54.542Z,955.81
2017-02-21T04:03:05.258Z,955.85
2017-02-21T04:04:15.566Z,955.87
2017-02-21T04:05:26.267Z,955.88
2017-02-21T04:06:36.968Z,955.93
2017-02-21T04:07:47.286Z,955.95
2017-02-21T04:08:58.000Z,955.95
2017-02-21T04:10:08.712Z,955.99
2017-02-21T04:11:19.435Z,955.99
2017-02-21T04:12:30.136Z,956.06
2017-02-21T04:13:40.837Z,956.08
2017-02-21T04:14:51.534Z,956.13
2017-02-21T04:16:02.247Z,956.12
2017-02-21T04:17:12.968Z,956.16
2017-02-21T04:18:23.682Z,956.18
2017-02-21T04:19:34.411Z,956.16
2017-02-21T04:20:45.142Z,956.21
2017-02-21T04:21:57.796Z,956.26
2017-02-21T04:23:08.502Z,956.2
2017-02-21T04:24:19.205Z,956.19
2017-02-21T04:25:29.910Z,956.28
2017-02-21T04:26:40.632Z,956.29
2017-02-21T04:27:50.927Z,956.34
2017-02-21T04:29:01.658Z,956.34
2017-02-21T04:30:12.382Z,956.37
2017-02-21T04:31:23.091Z,956.38
2017-02-21T04:32:33.787Z,956.43
2017-02-21T04:33:44.509Z,956.51
2017-02-21T04:34:55.223Z,956.54
2017-02-21T04:36:05.540Z,956.59
2017-02-21T04:37:15.861Z,956.63
2017-02-21T04:38:26.600Z,956.67
2017-02-21T04:39:37.331Z,956.7
2017-02-21T04:40:47.247Z,956.71
2017-02-21T04:41:57.956Z,956.85
2017-02-21T04:43:07.873Z,956.85
2017-02-21T04:44:18.578Z,956.85
2017-02-21T04:45:29.275Z,956.91
2017-02-21T04:46:39.982Z,956.96
2017-02-21T04:47:50.680Z,956.98
2017-02-21T04:49:01.374Z,957.04
2017-02-21T04:50:12.101Z,957.03
2017-02-21T04:51:22.814Z,957.05
2017-02-21T04:52:33.520Z,957.12
2017-02-21T04:53:44.218Z,957.14
2017-02-21T04:54:54.922Z,957.19
2017-02-21T04:56:05.632Z,957.23
2017-02-21T04:57:15.944Z,957.3
2017-02-21T04:58:26.659Z,957.25
2017-02-21T04:59:37.349Z,957.3
2017-02-21T05:00:48.061Z,957.32
2017-02-21T05:01:58.769Z,957.4
2017-02-21T05:03:09.473Z,957.42
2017-02-21T05:04:20.182Z,957.45
2017-02-21T05:05:30.906Z,957.45
2017-02-21T05:06:41.614Z,957.52
2017-02-21T05:07:52.313Z,957.52
2017-02-21T05:09:03.041Z,957.51
2017-02-21T05:10:12.943Z,957.62
2017-02-21T05:11:23.643Z,957.6
2017-02-21T05:12:34.348Z,957.66
2017-02-21T05:13:44.667Z,957.69
2017-02-21T05:14:55.382Z,957.7
2017-02-21T05:16:06.080Z,957.76
2017-02-21T05:17:16.768Z,957.77
2017-02-21T05:18:27.479Z,957.8
2017-02-21T05:19:38.173Z,957.77
2017-02-21T05:20:47.313Z,957.82
2017-02-21T05:21:58.047Z,957.85
2017-02-21T05:23:07.978Z,957.84
2017-02-21T05:24:18.673Z,957.83
2017-02-21T05:25:28.978Z,957.86
2017-02-21T05:26:39.717Z,957.92
2017-02-21T05:27:50.034Z,957.92
2017-02-21T05:29:00.740Z,957.95
2017-02-21T05:30:11.443Z,958.02
2017-02-21T05:31:21.742Z,958.04
2017-02-21T05:32:32.447Z,958.04
2017-02-21T05:33:42.741Z,958.11
2017-02-21T05:34:53.438Z,958.08
2017-02-21T05:36:04.147Z,958.11
2017-02-21T05:37:14.852Z,958.15
2017-02-21T05:38:25.553Z,958.19
2017-02-21T05:39:36.249Z,958.18
2017-02-21T05:40:46.949Z,958.25
2017-02-21T05:41:57.635Z,958.25
2017-02-21T05:43:08.373Z,958.28
2017-02-21T05:44:18.297Z,958.31
2017-02-21T05:45:29.005Z,958.34
2017-02-21T05:46:39.704Z,958.38
2017-02-21T05:47:50.409Z,958.44
2017-02-21T05:49:00.716Z,958.49
2017-02-21T05:50:11.438Z,958.48
2017-02-21T05:51:22.149Z,958.51
2017-02-21T05:52:32.844Z,958.53
2017-02-21T05:53:43.558Z,958.57
2017-02-21T05:54:54.334Z,958.58
2017-02-21T05:56:05.050Z,958.61
2017-02-21T05:57:14.978Z,958.6
2017-02-21T05:58:25.687Z,958.64
2017-02-21T05:59:36.397Z,958.61
2017-02-21T06:00:46.696Z,958.67
2017-02-21T06:01:57.400Z,958.66
2017-02-21T06:03:07.719Z,958.71
2017-02-21T06:04:17.630Z,958.71
2017-02-21T06:05:28.348Z,958.67
2017-02-21T06:06:39.076Z,958.69
2017-02-21T06:07:49.813Z,958.71
2017-02-21T06:09:00.508Z,958.7
2017-02-21T06:10:10.812Z,958.72
2017-02-21T06:11:21.519Z,958.75
2017-02-21T06:12:31.821Z,958.76
2017-02-21T06:13:44.120Z,958.75
2017-02-21T06:14:54.830Z,958.81
2017-02-21T06:16:05.535Z,958.85
2017-02-21T06:17:16.234Z,958.94
2017-02-21T06:18:26.948Z,959.02
2017-02-21T06:19:37.657Z,959.03
2017-02-21T06:20:48.373Z,959.07
2017-02-21T06:21:59.075Z,959.09
2017-02-21T06:23:09.380Z,959.11
2017-02-21T06:24:20.074Z,959.12
2017-02-21T06:25:30.387Z,959.16
2017-02-21T06:26:41.112Z,959.22
2017-02-21T06:27:51.824Z,959.25
2017-02-21T06:29:02.518Z,959.27
2017-02-21T06:30:12.416Z,959.3
2017-02-21T06:31:23.114Z,959.3
2017-02-21T06:32:33.825Z,959.32
2017-02-21T06:33:44.528Z,959.37
2017-02-21T06:34:54.831Z,959.37
2017-02-21T06:36:05.534Z,959.37
2017-02-21T06:37:15.444Z,959.36
2017-02-21T06:38:26.145Z,959.39
2017-02-21T06:39:36.852Z,959.38
2017-02-21T06:40:47.168Z,959.4
2017-02-21T06:41:57.886Z,959.39
2017-02-21T06:43:08.201Z,959.37
2017-02-21T06:44:18.900Z,959.43
2017-02-21T06:45:29.203Z,959.44
2017-02-21T06:46:39.928Z,959.48
2017-02-21T06:47:50.654Z,959.51
2017-02-21T06:49:00.554Z,959.5
2017-02-21T06:50:11.260Z,959.52
2017-02-21T06:51:21.970Z,959.55
2017-02-21T06:52:32.674Z,959.54
2017-02-21T06:53:43.368Z,959.57
2017-02-21T06:54:53.673Z,959.59
2017-02-21T06:56:04.444Z,959.62
2017-02-21T06:57:15.140Z,959.66
2017-02-21T06:58:25.859Z,959.69
2017-02-21T06:59:36.552Z,959.75
2017-02-21T07:00:46.852Z,959.83
2017-02-21T07:01:57.553Z,959.82
2017-02-21T07:03:08.280Z,959.84
2017-02-21T07:04:18.239Z,959.85
2017-02-21T07:05:28.946Z,959.94
2017-02-21T07:06:39.650Z,959.94
2017-02-21T07:07:50.367Z,959.96
2017-02-21T07:09:01.082Z,960
2017-02-21T07:10:11.812Z,960.01
2017-02-21T07:11:22.528Z,959.99
2017-02-21T07:12:33.252Z,960
2017-02-21T07:13:43.546Z,960.04
2017-02-21T07:14:54.295Z,960.06
2017-02-21T07:16:05.017Z,960.11
2017-02-21T07:17:15.724Z,960.13
2017-02-21T07:18:26.425Z,960.15
2017-02-21T07:19:37.145Z,960.2
2017-02-21T07:20:47.858Z,960.23
2017-02-21T07:21:58.588Z,960.27
2017-02-21T07:23:08.894Z,960.33
2017-02-21T07:24:19.604Z,960.32
2017-02-21T07:25:30.309Z,960.34
2017-02-21T07:26:41.031Z,960.38
2017-02-21T07:27:51.337Z,960.35
2017-02-21T07:29:02.045Z,960.38
2017-02-21T07:30:12.363Z,960.41
2017-02-21T07:31:22.686Z,960.44
2017-02-21T07:32:33.394Z,960.51
2017-02-21T07:33:43.718Z,960.49
2017-02-21T07:34:54.414Z,960.48
2017-02-21T07:36:04.742Z,960.49
2017-02-21T07:37:15.444Z,960.54
2017-02-21T07:38:26.156Z,960.62
2017-02-21T07:39:36.882Z,960.66
2017-02-21T07:40:47.179Z,960.71
2017-02-21T07:41:57.897Z,960.75
2017-02-21T07:43:08.200Z,960.77
2017-02-21T07:44:18.926Z,960.79
2017-02-21T07:45:29.637Z,960.82
2017-02-21T07:46:39.951Z,960.86
2017-02-21T07:47:49.902Z,960.89
2017-02-21T07:49:00.620Z,960.92
2017-02-21T07:50:11.327Z,960.93
2017-02-21T07:51:22.014Z,960.93
2017-02-21T07:52:32.314Z,960.95
2017-02-21T07:53:43.027Z,960.95
2017-02-21T07:54:53.762Z,960.96
2017-02-21T07:56:04.474Z,961.01
2017-02-21T07:57:15.185Z,961
2017-02-21T07:58:25.889Z,961.06
2017-02-21T07:59:36.606Z,961.06
2017-02-21T08:00:47.313Z,961.07
2017-02-21T08:01:58.006Z,961.11
2017-02-21T08:03:08.717Z,961.08
2017-02-21T08:04:19.043Z,961.13
2017-02-21T08:05:29.356Z,961.14
2017-02-21T08:06:40.067Z,961.2
2017-02-21T08:07:50.760Z,961.15
2017-02-21T08:09:01.469Z,961.18
2017-02-21T08:10:12.179Z,961.2
2017-02-21T08:11:22.884Z,961.2
2017-02-21T08:12:33.591Z,961.22
2017-02-21T08:13:44.286Z,961.22
2017-02-21T08:14:55.004Z,961.26
2017-02-21T08:16:05.722Z,961.27
2017-02-21T08:17:15.644Z,961.26
2017-02-21T08:18:26.345Z,961.36
2017-02-21T08:19:37.052Z,961.36
2017-02-21T08:20:47.351Z,961.4
2017-02-21T08:21:57.670Z,961.47
2017-02-21T08:23:07.596Z,961.48
2017-02-21T08:24:18.303Z,961.54
2017-02-21T08:25:29.012Z,961.58
2017-02-21T08:26:39.729Z,961.62
2017-02-21T08:27:50.049Z,961.67
2017-02-21T08:29:00.393Z,961.71
2017-02-21T08:30:11.135Z,961.74
2017-02-21T08:31:21.454Z,961.76
2017-02-21T08:32:32.171Z,961.77
2017-02-21T08:33:42.866Z,961.84
2017-02-21T08:34:52.779Z,961.87
2017-02-21T08:36:03.483Z,961.87
2017-02-21T08:37:13.810Z,961.86
2017-02-21T08:38:24.520Z,961.94
2017-02-21T08:39:34.835Z,961.96
2017-02-21T08:40:45.530Z,961.96
2017-02-21T08:41:56.233Z,961.98
2017-02-21T08:43:06.969Z,962.01
2017-02-21T08:44:17.682Z,962.03
2017-02-21T08:45:28.386Z,962.08
2017-02-21T08:46:39.098Z,962.09
2017-02-21T08:47:49.807Z,962.11
2017-02-21T08:49:00.514Z,962.16
2017-02-21T08:50:10.827Z,962.14
2017-02-21T08:51:21.132Z,962.17
2017-02-21T08:52:31.833Z,962.22
2017-02-21T08:53:42.138Z,962.27
2017-02-21T08:54:52.895Z,962.28
2017-02-21T08:56:03.217Z,962.33
2017-02-21T08:57:13.930Z,962.35
2017-02-21T08:58:24.642Z,962.39
2017-02-21T08:59:34.949Z,962.4
2017-02-21T09:00:45.258Z,962.41
2017-02-21T09:01:55.965Z,962.45
2017-02-21T09:03:06.667Z,962.51
2017-02-21T09:04:17.384Z,962.54
2017-02-21T09:05:28.102Z,962.54
2017-02-21T09:06:38.811Z,962.55
2017-02-21T09:07:49.126Z,962.63
2017-02-21T09:08:59.820Z,962.61
2017-02-21T09:10:10.553Z,962.66
2017-02-21T09:11:21.254Z,962.64
2017-02-21T09:12:31.972Z,962.65
2017-02-21T09:13:42.684Z,962.71
2017-02-21T09:14:53.386Z,962.69
2017-02-21T09:16:04.095Z,962.72
2017-02-21T09:17:14.404Z,962.73
2017-02-21T09:18:25.102Z,962.67
2017-02-21T09:19:35.416Z,962.69
2017-02-21T09:20:46.165Z,962.71
2017-02-21T09:21:56.497Z,962.71
2017-02-21T09:23:06.807Z,962.74
2017-02-21T09:24:17.520Z,962.75
2017-02-21T09:25:28.231Z,962.85
2017-02-21T09:26:38.563Z,962.79
2017-02-21T09:27:48.969Z,962.8
2017-02-21T09:28:59.696Z,962.86
2017-02-21T09:30:10.434Z,962.79
2017-02-21T09:31:20.752Z,962.86
2017-02-21T09:32:31.455Z,962.89
2017-02-21T09:33:42.196Z,962.85
2017-02-21T09:34:52.911Z,962.9
2017-02-21T09:36:03.621Z,962.91
2017-02-21T09:37:14.334Z,962.92
2017-02-21T09:38:25.061Z,962.96
2017-02-21T09:39:35.370Z,962.98
2017-02-21T09:40:45.676Z,963.01
2017-02-21T09:41:56.383Z,963.03
2017-02-21T09:43:07.088Z,963
2017-02-21T09:44:17.393Z,963.02
2017-02-21T09:45:28.091Z,963.06
2017-02-21T09:46:38.818Z,963.08
2017-02-21T09:47:49.127Z,963.11
2017-02-21T09:48:59.844Z,963.17
2017-02-21T09:50:10.552Z,963.19
2017-02-21T09:51:21.289Z,963.18
2017-02-21T09:52:31.999Z,963.15
2017-02-21T09:53:42.735Z,963.22
2017-02-21T09:54:53.460Z,963.27
2017-02-21T09:56:04.166Z,963.24
2017-02-21T09:57:14.881Z,963.23
2017-02-21T09:58:25.603Z,963.25
2017-02-21T09:59:36.321Z,963.31
2017-02-21T10:00:47.037Z,963.31
2017-02-21T10:01:57.734Z,963.23
2017-02-21T10:03:08.051Z,963.29
2017-02-21T10:04:18.769Z,963.34
2017-02-21T10:05:29.090Z,963.42
2017-02-21T10:06:39.819Z,963.47
2017-02-21T10:07:50.533Z,963.66
2017-02-21T10:09:01.234Z,963.72
2017-02-21T10:10:11.956Z,963.78
2017-02-21T10:11:22.262Z,963.82
2017-02-21T10:12:32.574Z,963.74
2017-02-21T10:13:43.283Z,963.71
2017-02-21T10:14:53.635Z,963.91
2017-02-21T10:16:04.349Z,963.95
2017-02-21T10:17:14.271Z,963.95
2017-02-21T10:18:24.978Z,963.91
2017-02-21T10:19:35.703Z,963.92
2017-02-21T10:20:46.427Z,963.9
2017-02-21T10:21:57.151Z,963.85
2017-02-21T10:23:07.854Z,963.87
2017-02-21T10:24:18.192Z,964.01
2017-02-21T10:25:28.504Z,963.96
2017-02-21T10:26:39.162Z,964
2017-02-21T10:27:49.488Z,963.92
2017-02-21T10:29:00.205Z,963.94
2017-02-21T10:30:10.530Z,964.02
2017-02-21T10:31:20.872Z,964.04
2017-02-21T10:32:31.182Z,964.12
2017-02-21T10:33:41.878Z,964.12
2017-02-21T10:34:52.598Z,964.09
2017-02-21T10:36:03.310Z,964.13
2017-02-21T10:37:12.826Z,964.04
2017-02-21T10:38:23.172Z,964.03
2017-02-21T10:39:33.917Z,964.04
2017-02-21T10:40:44.635Z,964.07
2017-02-21T10:41:54.549Z,964.11
2017-02-21T10:43:05.299Z,964.11
2017-02-21T10:44:15.240Z,964.14
2017-02-21T10:45:25.957Z,964.13
2017-02-21T10:46:36.677Z,964.14
2017-02-21T10:47:46.993Z,964.18
2017-02-21T10:48:57.720Z,964.23
2017-02-21T10:50:08.429Z,964.35
2017-02-21T10:51:19.144Z,964.44
2017-02-21T10:52:29.463Z,964.42
2017-02-21T10:53:40.232Z,964.44
2017-02-21T10:54:50.939Z,964.45
2017-02-21T10:56:01.267Z,964.5
2017-02-21T10:57:12.011Z,964.5
2017-02-21T10:58:21.937Z,964.46
2017-02-21T10:59:32.649Z,964.49
2017-02-21T11:00:43.380Z,964.49
2017-02-21T11:01:54.088Z,964.38
2017-02-21T11:03:04.804Z,964.45
2017-02-21T11:04:15.515Z,964.51
2017-02-21T11:05:26.225Z,964.53
2017-02-21T11:06:36.963Z,964.48
2017-02-21T11:07:47.695Z,964.49
2017-02-21T11:08:58.406Z,964.48
2017-02-21T11:10:09.128Z,964.44
2017-02-21T11:11:19.846Z,964.42
2017-02-21T11:12:30.553Z,964.46
2017-02-21T11:13:41.259Z,964.49
2017-02-21T11:14:51.973Z,964.57
2017-02-21T11:16:02.292Z,964.59
2017-02-21T11:17:12.617Z,964.67
2017-02-21T11:18:22.951Z,964.62
2017-02-21T11:19:33.658Z,964.68
2017-02-21T11:20:44.379Z,964.66
2017-02-21T11:21:55.089Z,964.6
2017-02-21T11:23:05.839Z,964.66
2017-02-21T11:24:16.141Z,964.68
2017-02-21T11:25:26.873Z,964.72
2017-02-21T11:26:37.202Z,964.76
2017-02-21T11:27:47.917Z,964.67
2017-02-21T11:28:58.232Z,964.77
2017-02-21T11:30:08.556Z,964.79
2017-02-21T11:31:18.880Z,964.79
2017-02-21T11:32:29.607Z,964.82
2017-02-21T11:33:40.311Z,964.82
2017-02-21T11:34:51.028Z,964.89
2017-02-21T11:36:01.340Z,964.91
2017-02-21T11:37:12.083Z,964.96
2017-02-21T11:38:22.409Z,965
2017-02-21T11:39:33.126Z,964.98
2017-02-21T11:40:43.843Z,964.9
2017-02-21T11:41:54.537Z,964.89
2017-02-21T11:43:05.248Z,964.83
2017-02-21T11:44:15.580Z,964.88
2017-02-21T11:45:26.309Z,964.98
2017-02-21T11:46:37.028Z,965
2017-02-21T11:47:47.759Z,964.96
2017-02-21T11:48:58.464Z,964.93
2017-02-21T11:50:09.187Z,965.03
2017-02-21T11:51:19.896Z,964.72
2017-02-21T11:52:30.606Z,964.79
2017-02-21T11:53:41.304Z,964.8
2017-02-21T11:54:52.033Z,965.18
2017-02-21T11:56:02.754Z,965.17
2017-02-21T11:57:13.071Z,964.83
2017-02-21T11:58:23.789Z,964.78
2017-02-21T11:59:34.509Z,964.84
2017-02-21T12:00:45.240Z,964.89
2017-02-21T12:01:55.966Z,964.98
2017-02-21T12:03:06.676Z,964.88
2017-02-21T12:04:17.394Z,964.83
2017-02-21T12:05:28.112Z,964.84
2017-02-21T12:06:38.432Z,964.94
2017-02-21T12:07:49.379Z,965.06
2017-02-21T12:09:00.100Z,965.13
2017-02-21T12:10:10.414Z,965.17
2017-02-21T12:11:21.126Z,965.1
2017-02-21T12:12:31.468Z,965.02
2017-02-21T12:13:42.190Z,965.04
2017-02-21T12:14:52.917Z,964.94
2017-02-21T12:16:03.274Z,964.91
2017-02-21T12:17:13.990Z,965.05
2017-02-21T12:18:24.827Z,965.07
2017-02-21T12:19:35.554Z,965.03
2017-02-21T12:20:46.313Z,965.02
2017-02-21T12:21:56.632Z,965.02
2017-02-21T12:23:07.357Z,965.06
2017-02-21T12:24:17.707Z,965.13
2017-02-21T12:25:27.653Z,965.22
2017-02-21T12:26:38.382Z,965.23
2017-02-21T12:27:48.701Z,965.21
2017-02-21T12:28:59.014Z,965.2
2017-02-21T12:30:09.348Z,965.19
2017-02-21T12:31:19.660Z,965.22
2017-02-21T12:32:30.364Z,965.19
2017-02-21T12:33:41.079Z,965.14
2017-02-21T12:34:51.787Z,965.2
2017-02-21T12:36:02.505Z,965.32
2017-02-21T12:37:12.823Z,965.45
2017-02-21T12:38:23.153Z,965.51
2017-02-21T12:39:33.864Z,965.59
2017-02-21T12:40:44.605Z,965.53
2017-02-21T12:41:54.924Z,965.51
2017-02-21T12:43:05.260Z,965.45
2017-02-21T12:44:15.594Z,965.43
2017-02-21T12:45:26.304Z,965.41
2017-02-21T12:46:37.022Z,965.37
2017-02-21T12:47:47.735Z,965.28
2017-02-21T12:48:58.061Z,965.2
2017-02-21T12:50:08.000Z,965.23
2017-02-21T12:51:18.330Z,965.19
2017-02-21T12:52:29.053Z,965.18
2017-02-21T12:53:39.766Z,965.23
2017-02-21T12:54:50.475Z,965.16
2017-02-21T12:56:01.188Z,965.14
2017-02-21T12:57:11.902Z,965.14
2017-02-21T12:58:22.241Z,965.21
2017-02-21T12:59:33.278Z,965.25
2017-02-21T13:00:43.989Z,965.23
2017-02-21T13:01:53.899Z,965.31
2017-02-21T13:03:04.231Z,965.31
2017-02-21T13:04:14.562Z,965.27
2017-02-21T13:05:25.265Z,965.35
2017-02-21T13:06:35.997Z,965.38
2017-02-21T13:07:46.722Z,965.41
2017-02-21T13:08:57.055Z,965.43
2017-02-21T13:10:07.783Z,965.45
2017-02-21T13:11:18.136Z,965.49
2017-02-21T13:12:28.445Z,965.52
2017-02-21T13:13:39.176Z,965.5
2017-02-21T13:14:49.886Z,965.47
2017-02-21T13:16:00.616Z,965.48
2017-02-21T13:17:11.340Z,965.53
2017-02-21T13:18:20.875Z,965.62
2017-02-21T13:19:31.600Z,965.75
2017-02-21T13:20:41.541Z,965.71
2017-02-21T13:21:52.260Z,965.82
2017-02-21T13:23:02.628Z,965.85
2017-02-21T13:24:13.338Z,965.84
2017-02-21T13:25:23.257Z,965.81
2017-02-21T13:26:33.579Z,965.82
2017-02-21T13:27:44.292Z,965.88
2017-02-21T13:28:55.017Z,965.73
2017-02-21T13:30:05.727Z,965.62
2017-02-21T13:31:16.458Z,965.72
2017-02-21T13:32:27.189Z,965.82
2017-02-21T13:33:37.899Z,965.62
2017-02-21T13:34:48.622Z,965.47
2017-02-21T13:35:58.530Z,965.55
2017-02-21T13:37:09.245Z,965.43
2017-02-21T13:38:19.575Z,965.46
2017-02-21T13:39:30.304Z,965.47
2017-02-21T13:40:40.632Z,965.52
2017-02-21T13:41:51.342Z,965.48
2017-02-21T13:43:02.068Z,965.46
2017-02-21T13:44:12.422Z,965.47
2017-02-21T13:45:22.775Z,965.47
2017-02-21T13:46:33.083Z,965.51
2017-02-21T13:47:43.807Z,965.5
2017-02-21T13:48:54.511Z,965.53
2017-02-21T13:50:04.875Z,965.54
2017-02-21T13:51:15.578Z,965.58
2017-02-21T13:52:26.302Z,965.6
2017-02-21T13:53:37.010Z,965.6
2017-02-21T13:54:47.711Z,965.56
2017-02-21T13:55:58.037Z,965.49
2017-02-21T13:57:08.760Z,965.42
2017-02-21T13:58:19.316Z,965.43
2017-02-21T13:59:30.025Z,965.46
2017-02-21T14:01:49.060Z,965.51
2017-02-21T14:04:08.835Z,965.52
2017-02-21T14:05:19.566Z,965.57
2017-02-21T14:06:29.894Z,965.53
2017-02-21T14:07:40.607Z,965.53
2017-02-21T14:08:51.306Z,965.52
2017-02-21T14:10:01.633Z,965.5
2017-02-21T14:11:11.972Z,965.54
2017-02-21T14:12:22.680Z,965.53
2017-02-21T14:13:33.024Z,965.57
2017-02-21T14:14:43.747Z,965.53
2017-02-21T14:15:54.469Z,965.52
2017-02-21T14:17:05.207Z,965.5
2017-02-21T14:18:15.522Z,965.6
2017-02-21T14:19:26.256Z,965.55
2017-02-21T14:20:36.972Z,965.51
2017-02-21T14:21:47.684Z,965.5
2017-02-21T14:22:57.588Z,965.46
2017-02-21T14:24:08.307Z,965.41
2017-02-21T14:25:18.615Z,965.39
2017-02-21T14:26:29.325Z,965.38
2017-02-21T14:27:40.049Z,965.42
2017-02-21T14:28:50.770Z,965.49
2017-02-21T14:30:01.093Z,965.51
2017-02-21T14:31:11.422Z,965.61
2017-02-21T14:32:22.143Z,965.57
2017-02-21T14:33:32.467Z,965.55
2017-02-21T14:34:43.174Z,965.54
2017-02-21T14:35:53.887Z,965.54
2017-02-21T14:37:04.618Z,965.55
2017-02-21T14:38:15.327Z,965.53
2017-02-21T14:40:34.542Z,965.47
2017-02-21T14:41:45.289Z,965.53
2017-02-21T14:42:56.007Z,965.56
2017-02-21T14:44:06.328Z,965.53
2017-02-21T14:45:16.635Z,965.47
2017-02-21T14:46:27.365Z,965.42